Time;durP1;ratioP1;P1;durP2;ratioP2;P2;SDS_P1;SDS_P2;PMS_P1;PMS_P2;Temp;Humidity;BMP_temperature;BMP_pressure;BME280_temperature;BME280_humidity;BME280_pressure;Samples;Min_cycle;Max_cycle;Signal;HPM_P1;HPM_P2
2022/03/26 00:00:06;;;;;;;;;;;;;;;;;;4978734;28;20293;-58
2022/03/26 00:02:31;;;;;;;;;;;;;;;;;;4982156;28;20521;-58
2022/03/26 00:05:01;;;;;;;;;;;;;;;;;;4981278;28;19925;-58
2022/03/26 00:07:29;;;;;;;;;;;;;;;;;;4978363;28;19917;-58
2022/03/26 00:09:54;;;;;;;;;;;;;;;;;;4977935;28;19976;-58
2022/03/26 00:12:22;;;;;;;;;;;;;;;;;;4993874;28;19925;-58
2022/03/26 00:14:47;;;;;;;;;;;;;;;;;;4977878;28;19958;-58
2022/03/26 00:17:15;;;;;;;;;;;;;;;;;;4980175;28;19917;-58
2022/03/26 00:19:43;;;;;;;;;;;;;;;;;;4976860;28;19928;-58
2022/03/26 00:22:11;;;;;;;;;;;;;;;;;;4995941;28;20732;-58
2022/03/26 00:24:39;;;;;;;;;;;;;;;;;;4975601;28;20651;-58
2022/03/26 00:27:04;;;;;;;;;;;;;;;;;;4976228;28;19921;-57
2022/03/26 00:29:31;;;;;;;;;;;;;;;;;;4960994;28;20022;-58
2022/03/26 00:31:59;;;;;;;;;;;;;;;;;;4978594;28;19918;-58
2022/03/26 00:34:29;;;;;;;;;;;;;;;;;;4975078;28;19914;-57
2022/03/26 00:36:57;;;;;;;;;;;;;;;;;;4980859;28;19925;-58
2022/03/26 00:39:25;;;;;;;;;;;;;;;;;;4975695;28;20007;-58
2022/03/26 00:41:52;;;;;;;;;;;;;;;;;;4960264;28;19917;-58
2022/03/26 00:44:17;;;;;;;;;;;;;;;;;;4961127;28;19945;-58
2022/03/26 00:46:45;;;;;;;;;;;;;;;;;;4980998;28;20019;-58
2022/03/26 00:49:10;;;;;;;;;;;;;;;;;;4977540;28;21560;-58
2022/03/26 00:51:38;;;;;;;;;;;;;;;;;;4978139;28;20446;-58
2022/03/26 00:54:08;;;;;;;;;;;;;;;;;;4976451;28;19917;-58
2022/03/26 00:56:39;;;;;;;;;;;;;;;;;;4958040;28;19925;-58
2022/03/26 00:59:06;;;;;;;;;;;;;;;;;;4981242;28;19941;-59
2022/03/26 01:01:34;;;;;;;;;;;;;;;;;;4976433;28;19922;-58
2022/03/26 01:03:59;;;;;;;;;;;;;;;;;;4980305;28;20015;-58
2022/03/26 01:06:25;;;;;;;;;;;;;;;;;;4979853;28;19917;-58
2022/03/26 01:08:50;;;;;;;;;;;;;;;;;;4977820;28;19926;-58
2022/03/26 01:11:17;;;;;;;;;;;;;;;;;;4977675;28;20035;-58
2022/03/26 01:13:43;;;;;;;;;;;;;;;;;;4982938;28;20413;-58
2022/03/26 01:16:12;;;;;;;;;;;;;;;;;;4976154;28;21800;-58
2022/03/26 01:18:40;;;;;;;;;;;;;;;;;;4979298;28;19921;-58
2022/03/26 01:21:07;;;;;;;;;;;;;;;;;;4977702;28;19953;-58
2022/03/26 01:23:35;;;;;;;;;;;;;;;;;;4976796;28;19957;-58
2022/03/26 01:26:04;;;;;;;;;;;;;;;;;;4976095;28;19921;-58
2022/03/26 01:28:30;;;;;;;;;;;;;;;;;;4975657;28;20043;-58
2022/03/26 01:30:55;;;;;;;;;;;;;;;;;;4977661;28;19913;-58
2022/03/26 01:33:21;;;;;;;;;;;;;;;;;;4961302;28;19924;-58
2022/03/26 01:35:46;;;;;;;;;;;;;;;;;;4976421;28;19953;-58
2022/03/26 01:38:13;;;;;;;;;;;;;;;;;;4977751;28;20024;-58
2022/03/26 01:40:38;;;;;;;;;;;;;;;;;;4975292;28;19963;-58
2022/03/26 01:43:06;;;;;;;;;;;;;;;;;;4980006;28;20060;-58
2022/03/26 01:45:33;;;;;;;;;;;;;;;;;;4977168;28;19955;-58
2022/03/26 01:48:01;;;;;;;;;;;;;;;;;;4975352;28;19940;-58
2022/03/26 01:50:26;;;;;;;;;;;;;;;;;;4977694;28;20044;-58
2022/03/26 01:52:52;;;;;;;;;;;;;;;;;;4976308;28;19918;-58
2022/03/26 01:55:17;;;;;;;;;;;;;;;;;;4977456;28;19921;-58
2022/03/26 01:57:43;;;;;;;;;;;;;;;;;;4975458;28;20599;-58
2022/03/26 02:00:08;;;;;;;;;;;;;;;;;;4977523;28;19933;-58
2022/03/26 02:02:34;;;;;;;;;;;;;;;;;;4978987;28;19917;-58
2022/03/26 02:04:59;;;;;;;;;;;;;;;;;;4982174;28;19999;-58
2022/03/26 02:07:24;;;;;;;;;;;;;;;;;;4979810;28;19923;-58
2022/03/26 02:09:52;;;;;;;;;;;;;;;;;;4981009;28;19925;-58
2022/03/26 02:12:17;;;;;;;;;;;;;;;;;;4995547;28;20533;-58
2022/03/26 02:14:45;;;;;;;;;;;;;;;;;;4981181;28;20465;-58
2022/03/26 02:17:11;;;;;;;;;;;;;;;;;;4979792;28;19921;-58
2022/03/26 02:19:36;;;;;;;;;;;;;;;;;;4962776;28;19948;-58
2022/03/26 02:22:04;;;;;;;;;;;;;;;;;;4982831;28;19924;-58
2022/03/26 02:24:32;;;;;;;;;;;;;;;;;;4982685;28;20008;-58
2022/03/26 02:26:57;;;;;;;;;;;;;;;;;;4978967;28;19963;-58
2022/03/26 02:29:22;;;;;;;;;;;;;;;;;;4978377;28;20814;-58
2022/03/26 02:31:50;;;;;;;;;;;;;;;;;;4983140;28;19918;-58
2022/03/26 02:34:16;;;;;;;;;;;;;;;;;;4977297;28;20000;-58
2022/03/26 02:36:44;;;;;;;;;;;;;;;;;;4978694;28;20798;-58
2022/03/26 02:39:11;;;;;;;;;;;;;;;;;;4979496;28;19956;-58
2022/03/26 02:41:36;;;;;;;;;;;;;;;;;;4973659;28;21529;-59
2022/03/26 02:44:04;;;;;;;;;;;;;;;;;;4982467;28;19918;-58
2022/03/26 02:46:32;;;;;;;;;;;;;;;;;;4981287;28;19929;-58
2022/03/26 02:48:57;;;;;;;;;;;;;;;;;;4978980;28;20334;-58
2022/03/26 02:51:22;;;;;;;;;;;;;;;;;;4980221;28;19917;-58
2022/03/26 02:53:48;;;;;;;;;;;;;;;;;;4980501;28;19914;-59
2022/03/26 02:56:15;;;;;;;;;;;;;;;;;;4961166;28;20012;-58
2022/03/26 02:58:43;;;;;;;;;;;;;;;;;;4982915;28;19940;-58
2022/03/26 03:01:13;;;;;;;;;;;;;;;;;;4981525;28;19921;-58
2022/03/26 03:03:44;;;;;;;;;;;;;;;;;;4964641;28;19951;-58
2022/03/26 03:06:09;;;;;;;;;;;;;;;;;;4980374;28;20304;-59
2022/03/26 03:08:37;;;;;;;;;;;;;;;;;;4981210;28;19918;-58
2022/03/26 03:11:04;;;;;;;;;;;;;;;;;;4981642;28;19924;-59
2022/03/26 03:13:30;;;;;;;;;;;;;;;;;;4978471;28;20448;-59
2022/03/26 03:15:58;;;;;;;;;;;;;;;;;;4980281;28;19913;-59
2022/03/26 03:18:23;;;;;;;;;;;;;;;;;;4960000;28;19920;-58
2022/03/26 03:20:49;;;;;;;;;;;;;;;;;;4975490;28;19924;-58
2022/03/26 03:23:14;;;;;;;;;;;;;;;;;;4978967;28;19931;-58
2022/03/26 03:25:39;;;;;;;;;;;;;;;;;;4959600;28;19917;-59
2022/03/26 03:28:04;;;;;;;;;;;;;;;;;;4979002;28;20379;-59
2022/03/26 03:30:32;;;;;;;;;;;;;;;;;;4978531;28;20547;-59
2022/03/26 03:33:00;;;;;;;;;;;;;;;;;;4980420;28;19917;-59
2022/03/26 03:35:26;;;;;;;;;;;;;;;;;;4979832;28;20076;-59
2022/03/26 03:37:54;;;;;;;;;;;;;;;;;;4982098;28;19925;-58
2022/03/26 03:40:20;;;;;;;;;;;;;;;;;;4980311;28;20428;-57
2022/03/26 03:42:48;;;;;;;;;;;;;;;;;;4979670;28;19917;-59
2022/03/26 03:45:15;;;;;;;;;;;;;;;;;;4981219;28;21632;-59
2022/03/26 03:47:41;;;;;;;;;;;;;;;;;;4978604;28;19972;-59
2022/03/26 03:50:06;;;;;;;;;;;;;;;;;;4993344;28;19921;-59
2022/03/26 03:52:32;;;;;;;;;;;;;;;;;;4980275;28;20652;-60
2022/03/26 03:54:59;;;;;;;;;;;;;;;;;;4980025;28;20451;-59
2022/03/26 03:57:27;;;;;;;;;;;;;;;;;;4979837;28;19961;-59
2022/03/26 03:59:53;;;;;;;;;;;;;;;;;;4976233;28;20066;-59
2022/03/26 04:02:20;;;;;;;;;;;;;;;;;;4976288;28;19918;-58
2022/03/26 04:04:46;;;;;;;;;;;;;;;;;;4977453;28;21361;-58
2022/03/26 04:07:12;;;;;;;;;;;;;;;;;;4981044;28;19913;-58
2022/03/26 04:09:37;;;;;;;;;;;;;;;;;;4962434;28;19925;-57
2022/03/26 04:12:04;;;;;;;;;;;;;;;;;;4982630;28;20601;-57
2022/03/26 04:14:34;;;;;;;;;;;;;;;;;;4980470;28;19917;-59
2022/03/26 04:17:02;;;;;;;;;;;;;;;;;;4982797;28;19917;-58
2022/03/26 04:19:27;;;;;;;;;;;;;;;;;;4976810;28;20022;-58
2022/03/26 04:21:56;;;;;;;;;;;;;;;;;;4979126;28;19921;-58
2022/03/26 04:24:24;;;;;;;;;;;;;;;;;;4978885;28;19921;-58
2022/03/26 04:26:52;;;;;;;;;;;;;;;;;;4976383;28;19913;-58
2022/03/26 04:29:17;;;;;;;;;;;;;;;;;;4979524;28;19925;-57
2022/03/26 04:31:42;;;;;;;;;;;;;;;;;;4978657;28;20324;-58
2022/03/26 04:34:10;;;;;;;;;;;;;;;;;;4979792;28;20295;-58
2022/03/26 04:36:35;;;;;;;;;;;;;;;;;;4980022;28;19917;-57
2022/03/26 04:39:01;;;;;;;;;;;;;;;;;;4978477;28;19925;-57
2022/03/26 04:41:29;;;;;;;;;;;;;;;;;;4980308;28;19913;-58
2022/03/26 04:43:57;;;;;;;;;;;;;;;;;;4977844;28;19925;-59
2022/03/26 04:46:22;;;;;;;;;;;;;;;;;;4977693;28;19959;-59
2022/03/26 04:48:49;;;;;;;;;;;;;;;;;;4976362;28;19967;-59
2022/03/26 04:51:19;;;;;;;;;;;;;;;;;;4981647;28;20008;-59
2022/03/26 04:53:45;;;;;;;;;;;;;;;;;;4962085;28;19921;-59
2022/03/26 04:56:12;;;;;;;;;;;;;;;;;;4978602;28;19998;-59
2022/03/26 04:58:40;;;;;;;;;;;;;;;;;;4979004;28;19944;-59
2022/03/26 05:01:08;;;;;;;;;;;;;;;;;;4978134;28;21884;-59
2022/03/26 05:03:33;;;;;;;;;;;;;;;;;;4976898;28;19926;-59
2022/03/26 05:05:58;;;;;;;;;;;;;;;;;;4981539;28;19988;-59
2022/03/26 05:08:24;;;;;;;;;;;;;;;;;;4995600;28;19918;-59
2022/03/26 05:10:52;;;;;;;;;;;;;;;;;;4978990;28;19921;-58
2022/03/26 05:13:17;;;;;;;;;;;;;;;;;;4976956;28;19968;-59
2022/03/26 05:15:43;;;;;;;;;;;;;;;;;;4977919;28;19918;-59
2022/03/26 05:18:10;;;;;;;;;;;;;;;;;;4977962;28;19914;-59
2022/03/26 05:20:39;;;;;;;;;;;;;;;;;;4979832;28;19920;-59
2022/03/26 05:23:05;;;;;;;;;;;;;;;;;;4976667;28;19928;-59
2022/03/26 05:25:31;;;;;;;;;;;;;;;;;;4978265;28;19928;-59
2022/03/26 05:27:56;;;;;;;;;;;;;;;;;;4977362;28;19941;-59
2022/03/26 05:30:22;;;;;;;;;;;;;;;;;;4980775;28;19925;-59
2022/03/26 05:32:48;;;;;;;;;;;;;;;;;;4977491;28;20035;-59
2022/03/26 05:35:16;;;;;;;;;;;;;;;;;;4980052;28;19925;-59
2022/03/26 05:37:44;;;;;;;;;;;;;;;;;;4979310;28;19991;-59
2022/03/26 05:40:12;;;;;;;;;;;;;;;;;;4982383;28;19917;-59
2022/03/26 05:42:37;;;;;;;;;;;;;;;;;;4982801;28;19929;-59
2022/03/26 05:45:05;;;;;;;;;;;;;;;;;;4979995;28;19925;-59
2022/03/26 05:47:30;;;;;;;;;;;;;;;;;;4985563;28;19920;-59
2022/03/26 05:49:58;;;;;;;;;;;;;;;;;;4985707;28;19921;-59
2022/03/26 05:52:29;;;;;;;;;;;;;;;;;;4987815;28;19921;-59
2022/03/26 05:54:54;;;;;;;;;;;;;;;;;;4986278;28;20376;-59
2022/03/26 05:57:22;;;;;;;;;;;;;;;;;;4987878;28;19921;-60
2022/03/26 05:59:49;;;;;;;;;;;;;;;;;;4986422;28;19953;-57
2022/03/26 06:02:15;;;;;;;;;;;;;;;;;;4987806;28;20558;-60
2022/03/26 06:04:40;;;;;;;;;;;;;;;;;;4984965;28;19922;-60
2022/03/26 06:07:07;;;;;;;;;;;;;;;;;;4985996;28;19917;-59
2022/03/26 06:09:36;;;;;;;;;;;;;;;;;;4985847;28;19922;-57
2022/03/26 06:12:04;;;;;;;;;;;;;;;;;;4982048;28;19940;-59
2022/03/26 06:14:30;;;;;;;;;;;;;;;;;;4978466;28;19944;-58
2022/03/26 06:16:55;;;;;;;;;;;;;;;;;;4986979;28;19992;-58
2022/03/26 06:19:26;;;;;;;;;;;;;;;;;;4983540;28;19913;-59
2022/03/26 06:21:51;;;;;;;;;;;;;;;;;;4981772;28;21069;-59
2022/03/26 06:24:17;;;;;;;;;;;;;;;;;;4983488;28;19914;-59
2022/03/26 06:26:44;;;;;;;;;;;;;;;;;;4980785;28;20316;-60
2022/03/26 06:29:09;;;;;;;;;;;;;;;;;;4981030;28;19921;-58
2022/03/26 06:31:34;;;;;;;;;;;;;;;;;;4984576;28;19920;-58
2022/03/26 06:34:02;;;;;;;;;;;;;;;;;;4986204;28;19976;-58
2022/03/26 06:36:27;;;;;;;;;;;;;;;;;;4971313;28;19923;-59
2022/03/26 06:38:53;;;;;;;;;;;;;;;;;;4986447;28;20560;-59
2022/03/26 06:41:21;;;;;;;;;;;;;;;;;;4985125;28;20527;-59
2022/03/26 06:43:46;;;;;;;;;;;;;;;;;;4984198;28;19925;-58
2022/03/26 06:46:14;;;;;;;;;;;;;;;;;;4993623;28;20421;-59
2022/03/26 06:48:39;;;;;;;;;;;;;;;;;;4981048;28;19920;-59
2022/03/26 06:51:08;;;;;;;;;;;;;;;;;;4991666;28;19961;-59
2022/03/26 06:53:33;;;;;;;;;;;;;;;;;;4978873;28;19985;-59
2022/03/26 06:56:01;;;;;;;;;;;;;;;;;;4984301;28;19921;-59
2022/03/26 06:58:32;;;;;;;;;;;;;;;;;;4986197;28;19952;-59
2022/03/26 07:01:02;;;;;;;;;;;;;;;;;;4986246;28;19921;-59
2022/03/26 07:03:27;;;;;;;;;;;;;;;;;;4985764;28;20443;-60
2022/03/26 07:05:53;;;;;;;;;;;;;;;;;;4983486;28;19918;-58
2022/03/26 07:08:18;;;;;;;;;;;;;;;;;;4984507;28;20154;-58
2022/03/26 07:10:49;;;;;;;;;;;;;;;;;;4984723;28;19928;-58
2022/03/26 07:13:14;;;;;;;;;;;;;;;;;;4987903;28;19924;-58
2022/03/26 07:15:42;;;;;;;;;;;;;;;;;;4981123;28;19917;-59
2022/03/26 07:18:11;;;;;;;;;;;;;;;;;;4982960;28;21326;-59
2022/03/26 07:20:39;;;;;;;;;;;;;;;;;;4985048;28;20032;-58
2022/03/26 07:23:06;;;;;;;;;;;;;;;;;;4986483;28;20036;-58
2022/03/26 07:25:34;;;;;;;;;;;;;;;;;;4985299;28;19994;-58
2022/03/26 07:28:00;;;;;;;;;;;;;;;;;;4983189;28;20315;-58
2022/03/26 07:30:25;;;;;;;;;;;;;;;;;;4983766;28;19921;-58
2022/03/26 07:32:53;;;;;;;;;;;;;;;;;;4985684;28;19925;-59
2022/03/26 07:35:21;;;;;;;;;;;;;;;;;;4983459;28;20502;-58
2022/03/26 07:37:46;;;;;;;;;;;;;;;;;;4985322;28;19941;-59
2022/03/26 07:40:14;;;;;;;;;;;;;;;;;;4984819;28;20358;-59
2022/03/26 07:42:42;;;;;;;;;;;;;;;;;;4967120;28;19959;-59
2022/03/26 07:45:10;;;;;;;;;;;;;;;;;;4985338;28;19925;-60
2022/03/26 07:47:36;;;;;;;;;;;;;;;;;;4985875;28;20060;-60
2022/03/26 07:50:04;;;;;;;;;;;;;;;;;;4982364;28;19926;-60
2022/03/26 07:52:29;;;;;;;;;;;;;;;;;;4968597;28;19921;-60
2022/03/26 07:54:54;;;;;;;;;;;;;;;;;;4984688;28;19975;-60
2022/03/26 07:57:22;;;;;;;;;;;;;;;;;;4987416;28;19932;-60
2022/03/26 07:59:47;;;;;;;;;;;;;;;;;;4983382;28;20502;-60
2022/03/26 08:02:15;;;;;;;;;;;;;;;;;;4984288;28;19918;-60
2022/03/26 08:04:40;;;;;;;;;;;;;;;;;;4984011;28;19924;-60
2022/03/26 08:07:06;;;;;;;;;;;;;;;;;;4998054;28;19979;-60
2022/03/26 08:09:31;;;;;;;;;;;;;;;;;;4982401;28;19925;-60
2022/03/26 08:11:57;;;;;;;;;;;;;;;;;;4984913;28;19917;-60
2022/03/26 08:14:22;;;;;;;;;;;;;;;;;;4983705;28;19917;-61
2022/03/26 08:16:50;;;;;;;;;;;;;;;;;;4984466;28;20081;-61
2022/03/26 08:19:17;;;;;;;;;;;;;;;;;;4984608;28;21228;-58
2022/03/26 08:21:42;;;;;;;;;;;;;;;;;;4980764;28;19913;-59
2022/03/26 08:24:07;;;;;;;;;;;;;;;;;;4985325;28;20442;-60
2022/03/26 08:26:33;;;;;;;;;;;;;;;;;;4984218;28;19944;-60
2022/03/26 08:28:58;;;;;;;;;;;;;;;;;;4984201;28;19921;-60
2022/03/26 08:31:24;;;;;;;;;;;;;;;;;;4984171;28;19917;-60
2022/03/26 08:33:49;;;;;;;;;;;;;;;;;;4983491;28;20059;-60
2022/03/26 08:36:17;;;;;;;;;;;;;;;;;;4983774;28;19918;-60
2022/03/26 08:38:45;;;;;;;;;;;;;;;;;;4984481;28;19929;-60
2022/03/26 08:41:11;;;;;;;;;;;;;;;;;;4980066;28;19933;-60
2022/03/26 08:43:36;;;;;;;;;;;;;;;;;;4982920;28;19913;-60
2022/03/26 08:46:04;;;;;;;;;;;;;;;;;;4984054;28;20376;-60
2022/03/26 08:48:29;;;;;;;;;;;;;;;;;;4982715;28;20028;-61
2022/03/26 08:50:57;;;;;;;;;;;;;;;;;;4984006;28;20023;-61
2022/03/26 08:53:25;;;;;;;;;;;;;;;;;;4985788;28;19918;-61
2022/03/26 08:55:51;;;;;;;;;;;;;;;;;;4963465;28;19929;-61
2022/03/26 08:58:17;;;;;;;;;;;;;;;;;;4985377;28;20035;-61
2022/03/26 09:00:42;;;;;;;;;;;;;;;;;;4966469;28;19921;-61
2022/03/26 09:03:07;;;;;;;;;;;;;;;;;;4982744;28;19913;-61
2022/03/26 09:05:33;;;;;;;;;;;;;;;;;;4983557;28;19918;-62
2022/03/26 09:07:58;;;;;;;;;;;;;;;;;;4983115;28;19917;-61
2022/03/26 09:10:24;;;;;;;;;;;;;;;;;;4983161;28;19921;-61
2022/03/26 09:12:49;;;;;;;;;;;;;;;;;;4981826;28;20392;-61
2022/03/26 09:15:14;;;;;;;;;;;;;;;;;;4967210;28;19921;-61
2022/03/26 09:17:39;;;;;;;;;;;;;;;;;;4980707;28;20170;-62
2022/03/26 09:20:05;;;;;;;;;;;;;;;;;;4984334;28;19917;-62
2022/03/26 09:22:32;;;;;;;;;;;;;;;;;;4983990;28;19921;-62
2022/03/26 09:25:00;;;;;;;;;;;;;;;;;;4983243;28;19921;-62
2022/03/26 09:27:25;;;;;;;;;;;;;;;;;;4983287;28;20296;-62
2022/03/26 09:29:51;;;;;;;;;;;;;;;;;;4966624;28;19979;-62
2022/03/26 09:32:16;;;;;;;;;;;;;;;;;;4997791;28;20011;-62
2022/03/26 09:34:44;;;;;;;;;;;;;;;;;;4983017;28;19948;-62
2022/03/26 09:37:11;;;;;;;;;;;;;;;;;;4983558;28;20381;-62
2022/03/26 09:39:39;;;;;;;;;;;;;;;;;;4967357;28;19918;-62
2022/03/26 09:42:04;;;;;;;;;;;;;;;;;;4986398;28;20285;-62
2022/03/26 09:44:30;;;;;;;;;;;;;;;;;;4983314;28;19917;-62
2022/03/26 09:46:55;;;;;;;;;;;;;;;;;;4985850;28;19975;-62
2022/03/26 09:49:21;;;;;;;;;;;;;;;;;;4979774;28;19928;-62
2022/03/26 09:51:46;;;;;;;;;;;;;;;;;;4984325;28;19921;-62
2022/03/26 09:54:12;;;;;;;;;;;;;;;;;;4983209;28;19967;-62
2022/03/26 09:56:40;;;;;;;;;;;;;;;;;;4981584;28;19921;-62
2022/03/26 09:59:05;;;;;;;;;;;;;;;;;;4983039;28;20567;-62
2022/03/26 10:01:31;;;;;;;;;;;;;;;;;;4982002;28;19927;-62
2022/03/26 10:03:56;;;;;;;;;;;;;;;;;;4979788;28;19945;-62
2022/03/26 10:06:26;;;;;;;;;;;;;;;;;;4983175;28;19920;-61
2022/03/26 10:08:51;;;;;;;;;;;;;;;;;;4982541;28;19914;-62
2022/03/26 10:11:17;;;;;;;;;;;;;;;;;;4980750;28;19928;-62
2022/03/26 10:13:46;;;;;;;;;;;;;;;;;;4981776;28;19920;-62
2022/03/26 10:16:14;;;;;;;;;;;;;;;;;;4983163;28;19918;-61
2022/03/26 10:18:43;;;;;;;;;;;;;;;;;;4981369;28;20412;-62
2022/03/26 10:21:08;;;;;;;;;;;;;;;;;;4985410;28;19971;-62
2022/03/26 10:23:33;;;;;;;;;;;;;;;;;;4983008;28;19913;-62
2022/03/26 10:26:02;;;;;;;;;;;;;;;;;;5001136;28;19968;-61
2022/03/26 10:28:29;;;;;;;;;;;;;;;;;;4987435;28;19952;-64
2022/03/26 10:33:41;;;;;;;;;;;;;;;;;;5002330;28;19964;-62
2022/03/26 10:36:06;;;;;;;;;;;;;;;;;;4984359;28;20004;-61
2022/03/26 10:38:32;;;;;;;;;;;;;;;;;;4986939;28;19928;-61
2022/03/26 10:40:57;;;;;;;;;;;;;;;;;;4984194;28;19921;-61
2022/03/26 10:43:22;;;;;;;;;;;;;;;;;;4981681;28;19920;-60
2022/03/26 10:45:47;;;;;;;;;;;;;;;;;;4984405;28;21805;-61
2022/03/26 10:48:15;;;;;;;;;;;;;;;;;;4980426;28;21924;-61
2022/03/26 10:50:44;;;;;;;;;;;;;;;;;;4973046;28;19918;-61
2022/03/26 10:53:10;;;;;;;;;;;;;;;;;;4977675;28;20551;-60
2022/03/26 10:55:35;;;;;;;;;;;;;;;;;;4981651;28;19972;-61
2022/03/26 10:58:01;;;;;;;;;;;;;;;;;;4979874;28;19926;-61
2022/03/26 11:00:29;;;;;;;;;;;;;;;;;;4983883;28;19917;-61
2022/03/26 11:02:55;;;;;;;;;;;;;;;;;;4982960;28;19928;-61
2022/03/26 11:05:20;;;;;;;;;;;;;;;;;;4983206;28;19914;-63
2022/03/26 11:07:46;;;;;;;;;;;;;;;;;;4982886;28;20003;-61
2022/03/26 11:10:11;;;;;;;;;;;;;;;;;;4980009;28;19917;-62
2022/03/26 11:12:36;;;;;;;;;;;;;;;;;;4980395;28;19917;-61
2022/03/26 11:15:03;;;;;;;;;;;;;;;;;;4979707;28;19952;-61
2022/03/26 11:17:28;;;;;;;;;;;;;;;;;;4981339;28;19917;-61
2022/03/26 11:19:53;;;;;;;;;;;;;;;;;;4980049;28;19998;-61
2022/03/26 11:22:19;;;;;;;;;;;;;;;;;;4982467;28;19917;-62
2022/03/26 11:24:46;;;;;;;;;;;;;;;;;;4983303;28;19917;-61
2022/03/26 11:27:14;;;;;;;;;;;;;;;;;;4982993;28;19924;-63
2022/03/26 11:29:42;;;;;;;;;;;;;;;;;;4985940;28;19913;-61
2022/03/26 11:32:08;;;;;;;;;;;;;;;;;;4986297;28;20969;-60
2022/03/26 11:34:33;;;;;;;;;;;;;;;;;;4984934;28;20260;-60
2022/03/26 11:37:01;;;;;;;;;;;;;;;;;;4985349;28;19913;-61
2022/03/26 11:39:26;;;;;;;;;;;;;;;;;;4984500;28;19940;-61
2022/03/26 11:41:51;;;;;;;;;;;;;;;;;;4968145;28;19917;-61
2022/03/26 11:44:17;;;;;;;;;;;;;;;;;;4987350;28;22028;-61
2022/03/26 11:52:11;;;;;;;;;;;;;;;;;;4986297;28;19917;-61
2022/03/26 11:54:36;;;;;;;;;;;;;;;;;;4980481;28;19983;-61
2022/03/26 11:57:01;;;;;;;;;;;;;;;;;;4981002;28;19917;-61
2022/03/26 11:59:27;;;;;;;;;;;;;;;;;;4961271;28;19917;-61
2022/03/26 12:01:52;;;;;;;;;;;;;;;;;;4978575;28;19977;-60
2022/03/26 12:04:18;;;;;;;;;;;;;;;;;;4980389;28;20456;-61
2022/03/26 12:06:43;;;;;;;;;;;;;;;;;;4977261;28;19920;-63
2022/03/26 12:09:10;;;;;;;;;;;;;;;;;;4977826;28;19991;-61
2022/03/26 12:11:37;;;;;;;;;;;;;;;;;;4978750;28;19917;-61
2022/03/26 12:14:05;;;;;;;;;;;;;;;;;;4981713;28;20202;-62
2022/03/26 12:16:33;;;;;;;;;;;;;;;;;;4980178;28;19921;-61
2022/03/26 12:19:01;;;;;;;;;;;;;;;;;;4979608;28;20385;-62
2022/03/26 12:21:26;;;;;;;;;;;;;;;;;;4979085;28;19931;-61
2022/03/26 12:23:52;;;;;;;;;;;;;;;;;;4977755;28;19923;-61
2022/03/26 12:26:17;;;;;;;;;;;;;;;;;;4980728;28;19921;-61
2022/03/26 12:28:43;;;;;;;;;;;;;;;;;;4978925;28;19921;-61
2022/03/26 12:31:09;;;;;;;;;;;;;;;;;;4980446;28;19917;-61
2022/03/26 12:33:37;;;;;;;;;;;;;;;;;;4977989;28;19956;-63
2022/03/26 12:36:02;;;;;;;;;;;;;;;;;;4978254;28;19918;-61
2022/03/26 12:38:28;;;;;;;;;;;;;;;;;;4980657;28;20495;-62
2022/03/26 12:40:54;;;;;;;;;;;;;;;;;;4979086;28;20484;-63
2022/03/26 12:43:19;;;;;;;;;;;;;;;;;;4979058;28;19944;-62
2022/03/26 12:45:45;;;;;;;;;;;;;;;;;;4978422;28;19979;-62
2022/03/26 12:48:12;;;;;;;;;;;;;;;;;;4975098;28;19909;-62
2022/03/26 12:50:38;;;;;;;;;;;;;;;;;;4991585;28;19955;-61
2022/03/26 12:53:03;;;;;;;;;;;;;;;;;;4975138;28;19917;-62
2022/03/26 12:55:31;;;;;;;;;;;;;;;;;;4975086;28;20012;-62
2022/03/26 13:00:41;;;;;;;;;;;;;;;;;;4978621;28;19925;-62
2022/03/26 13:03:06;;;;;;;;;;;;;;;;;;4979528;28;19917;-62
2022/03/26 13:05:31;;;;;;;;;;;;;;;;;;4984836;28;19975;-62
2022/03/26 13:07:59;;;;;;;;;;;;;;;;;;4978174;28;19951;-62
2022/03/26 13:10:27;;;;;;;;;;;;;;;;;;4978200;28;19913;-62
2022/03/26 13:12:52;;;;;;;;;;;;;;;;;;4977822;28;21867;-62
2022/03/26 13:15:17;;;;;;;;;;;;;;;;;;4975642;28;19913;-62
2022/03/26 13:17:42;;;;;;;;;;;;;;;;;;4975997;28;20017;-62
2022/03/26 13:20:10;;;;;;;;;;;;;;;;;;4977444;28;19921;-62
2022/03/26 13:22:38;;;;;;;;;;;;;;;;;;4980712;28;19929;-62
2022/03/26 13:25:03;;;;;;;;;;;;;;;;;;4994012;28;20007;-63
2022/03/26 13:27:29;;;;;;;;;;;;;;;;;;4980182;28;19932;-61
2022/03/26 13:29:57;;;;;;;;;;;;;;;;;;4979362;28;19917;-61
2022/03/26 13:32:27;;;;;;;;;;;;;;;;;;4979013;28;19991;-61
2022/03/26 13:34:52;;;;;;;;;;;;;;;;;;4976871;28;19919;-61
2022/03/26 13:37:18;;;;;;;;;;;;;;;;;;4959056;28;19921;-61
2022/03/26 13:39:43;;;;;;;;;;;;;;;;;;4977186;28;19922;-61
2022/03/26 13:42:08;;;;;;;;;;;;;;;;;;4978390;28;19972;-61
2022/03/26 13:44:37;;;;;;;;;;;;;;;;;;5111557;23;19929;-91
2022/03/26 13:47:25;;;;;;;;;;;;;;;;;;;;;
2022/03/26 13:50:03;;;;;;;;;;;;;;;;;;5034754;28;19913;-88
2022/03/26 13:52:30;;;;;;;;;;;;;;;;;;5029703;28;19969;-88
2022/03/26 13:54:57;;;;;;;;;;;;;;;;;;5023810;28;20012;-89
2022/03/26 13:57:23;;;;;;;;;;;;;;;;;;5028250;28;19913;-89
2022/03/26 13:59:48;;;;;;;;;;;;;;;;;;5044812;28;20305;-89
2022/03/26 14:02:17;;;;;;;;;;;;;;;;;;5032246;28;19984;-89
2022/03/26 14:04:46;;;;;;;;;;;;;;;;;;5023239;28;20190;-91
2022/03/26 14:07:12;;;;;;;;;;;;;;;;;;5037771;28;19924;-91
2022/03/26 14:09:38;;;;;;;;;;;;;;;;;;5036849;28;19909;-89
2022/03/26 14:12:05;;;;;;;;;;;;;;;;;;5022895;28;19988;-89
2022/03/26 14:14:31;;;;;;;;;;;;;;;;;;5021761;28;19917;-90
2022/03/26 14:16:59;;;;;;;;;;;;;;;;;;5003072;28;19920;-89
2022/03/26 14:19:25;;;;;;;;;;;;;;;;;;5019994;28;20200;-91
2022/03/26 14:22:08;;;;;;;;;;;;;;;;;;5025928;28;19944;-89
2022/03/26 14:24:39;;;;;;;;;;;;;;;;;;5038981;28;19917;-91
2022/03/26 14:27:07;;;;;;;;;;;;;;;;;;5030389;28;19905;-89
2022/03/26 14:29:56;;;;;;;;;;;;;;;;;;5034076;28;19909;-89
2022/03/26 14:32:29;;;;;;;;;;;;;;;;;;5037893;28;19920;-87
2022/03/26 14:34:58;;;;;;;;;;;;;;;;;;5028704;28;19904;-88
2022/03/26 14:37:49;;;;;;;;;;;;;;;;;;5039482;28;19909;-91
2022/03/26 14:40:37;;;;;;;;;;;;;;;;;;5031878;28;19968;-89
2022/03/26 14:43:05;;;;;;;;;;;;;;;;;;5019486;28;19920;-89
2022/03/26 14:45:34;;;;;;;;;;;;;;;;;;5031789;28;19917;-89
2022/03/26 14:48:03;;;;;;;;;;;;;;;;;;5024841;28;19917;-91
2022/03/26 14:50:50;;;;;;;;;;;;;;;;;;4999993;28;19979;-89
2022/03/26 14:53:15;;;;;;;;;;;;;;;;;;5000170;28;19913;-90
2022/03/26 14:55:41;;;;;;;;;;;;;;;;;;4993275;28;20407;-90
2022/03/26 14:58:07;;;;;;;;;;;;;;;;;;5020162;28;20335;-90
2022/03/26 15:00:37;;;;;;;;;;;;;;;;;;5003225;28;19940;-89
2022/03/26 15:03:03;;;;;;;;;;;;;;;;;;5000870;28;19936;-90
2022/03/26 15:05:28;;;;;;;;;;;;;;;;;;4997829;28;19909;-90
2022/03/26 15:07:53;;;;;;;;;;;;;;;;;;5005236;28;19940;-85
2022/03/26 15:10:20;;;;;;;;;;;;;;;;;;4994011;28;19909;-87
2022/03/26 15:12:47;;;;;;;;;;;;;;;;;;5008631;28;19913;-88
2022/03/26 15:15:13;;;;;;;;;;;;;;;;;;5020258;28;19906;-88
2022/03/26 15:17:38;;;;;;;;;;;;;;;;;;5005620;28;19924;-88
2022/03/26 15:20:09;;;;;;;;;;;;;;;;;;5006167;28;20354;-89
2022/03/26 15:22:40;;;;;;;;;;;;;;;;;;5014191;28;19975;-88
2022/03/26 15:25:07;;;;;;;;;;;;;;;;;;5041255;28;19984;-87
2022/03/26 15:31:24;;;;;;;;;;;;;;;;;;;;;
2022/03/26 16:00:12;;;;;;;;;;;;;;;;;;4982551;28;19917;-90
2022/03/26 16:02:38;;;;;;;;;;;;;;;;;;5016039;28;19912;-89
2022/03/26 16:05:05;;;;;;;;;;;;;;;;;;5016581;28;19909;-90
2022/03/26 16:07:31;;;;;;;;;;;;;;;;;;4996838;28;19920;-89
2022/03/26 16:09:59;;;;;;;;;;;;;;;;;;4997235;28;19920;-91
2022/03/26 16:12:25;;;;;;;;;;;;;;;;;;5010895;28;19919;-90
2022/03/26 16:14:51;;;;;;;;;;;;;;;;;;5029655;28;19913;-89
2022/03/26 16:17:20;;;;;;;;;;;;;;;;;;5016333;28;19913;-89
2022/03/26 16:19:48;;;;;;;;;;;;;;;;;;5021105;28;19913;-88
2022/03/26 16:22:14;;;;;;;;;;;;;;;;;;5031708;28;19913;-90
2022/03/26 16:24:45;;;;;;;;;;;;;;;;;;5015810;28;19939;-87
2022/03/26 16:27:11;;;;;;;;;;;;;;;;;;5015398;28;19917;-88
2022/03/26 16:29:47;;;;;;;;;;;;;;;;;;5018188;28;19924;-88
2022/03/26 16:32:16;;;;;;;;;;;;;;;;;;5017486;28;19913;-88
2022/03/26 16:34:41;;;;;;;;;;;;;;;;;;4999235;28;19935;-93
2022/03/26 16:37:06;;;;;;;;;;;;;;;;;;5013623;28;20846;-91
2022/03/26 16:39:32;;;;;;;;;;;;;;;;;;5015722;28;19967;-89
2022/03/26 16:41:58;;;;;;;;;;;;;;;;;;4999352;28;19909;-91
2022/03/26 16:44:25;;;;;;;;;;;;;;;;;;5018507;28;20284;-88
2022/03/26 16:46:54;;;;;;;;;;;;;;;;;;5017168;28;19945;-88
2022/03/26 16:49:19;;;;;;;;;;;;;;;;;;5013250;28;19951;-89
2022/03/26 16:51:44;;;;;;;;;;;;;;;;;;4997638;28;19909;-89
2022/03/26 16:54:12;;;;;;;;;;;;;;;;;;5019924;28;19970;-86
2022/03/26 16:56:38;;;;;;;;;;;;;;;;;;5025831;28;20032;-89
2022/03/26 16:59:04;;;;;;;;;;;;;;;;;;5017946;28;19986;-88
2022/03/26 17:01:29;;;;;;;;;;;;;;;;;;5002237;28;19910;-90
2022/03/26 17:03:56;;;;;;;;;;;;;;;;;;5018854;28;19949;-89
2022/03/26 17:06:29;;;;;;;;;;;;;;;;;;5012826;28;19913;-87
2022/03/26 17:08:56;;;;;;;;;;;;;;;;;;4997868;28;19962;-89
2022/03/26 17:11:21;;;;;;;;;;;;;;;;;;5013540;28;19909;-89
2022/03/26 17:13:49;;;;;;;;;;;;;;;;;;5013501;28;19913;-90
2022/03/26 17:16:14;;;;;;;;;;;;;;;;;;4998310;28;20091;-88
2022/03/26 17:18:42;;;;;;;;;;;;;;;;;;5016275;28;19910;-89
2022/03/26 17:21:08;;;;;;;;;;;;;;;;;;5018614;28;19960;-89
2022/03/26 17:23:34;;;;;;;;;;;;;;;;;;5022973;28;19909;-87